Terminal Aerodrome Forecast
Issued by NWS Paducah, KY

Home | Current Version | Previous Version | Text Only | Print | Product List | Glossary On
Versions: 1 2 3 4 5 6 7 8 9 10 11 12 13 14 15
000
FTUS43 KPAH 161400 AAA
TAFEVV
TAF AMD
KEVV 161439Z 1615/1712 26013G21KT P6SM SCT015 OVC025
      TEMPO 1615/1618 -SHRA OVC015
     FM162300 29008KT P6SM OVC020=

USA.gov is the U.S. government's official web portal to all federal, state and local government web resources and services.